Hauptseite
METAR-TAF:

METAR-TAF

Flughäfen :

Treviso, Italien

Flughafen Treviso

Breite: 45-39N, Länge: 012-11E, Höhe: 18 m

Beobachtung

Neuester Wetterbericht von vor 41 Minuten, um 19:20 UTC
Wind 1 kt aus Nord/Nordost
Temperatur 6°C
Luftfeuchtigkeit 75%
Luftdruck 1014 hPa
Sichtweite 10 km oder mehr
keine Wolken unter 1500 m und keine Kumulonimbus oder Gewitterwolken

METAR: LIPH 221920Z 02001KT CAVOK 06/02 Q1014

Zeit: 21:01 (20:01 UTC)

Prognose

Neuester Wetterbericht von vor 3 Stunden und 1 Minuten, um 17:00 UTC
Gültige Prognose vom 22 um 18 UTC bis 23 um 18 UTC
Wind 8 kt aus Nordost
Sichtweite: 8000 m
Aufgelockert bewölkt in der Höhe von 4000 ft

TAF: LIPH 221700Z 2218/2318 04008KT 8000 SCT040

Wetterbeobachtungen und Prognosen von mehr als 4000 Flughäfen (METAR und TAF Bericht).

Die verfügbaren Stationen werden durch gelbe und rote Markierungen auf der Karte dargestellt.

Führen Sie die Maus auf sie, um den Namen der Station zu sehen.

Darauf klicken, um die Beobachtung von Wetterbeobachtungen und Prognosen zu sehen.

Um die Karte zu ändern : klicken Sie auf den grünen Tasten mit einem schwarzen Kreuz Zum Vergrößern, auf den grünen Button mit einem Gedankenstrich zu verkleinern, oder auf die grünen Pfeile für benachbarte Karten.


METAR-TAF: